Time;durP1;ratioP1;P1;durP2;ratioP2;P2;SDS_P1;SDS_P2;PMS_P1;PMS_P2;Temp;Humidity;BMP_temperature;BMP_pressure;BME280_temperature;BME280_humidity;BME280_pressure;Samples;Min_cycle;Max_cycle;Signal;HPM_P1;HPM_P2
2022/06/23 00:01:59;;;;;;;345.05;83.32;;;;;;;16.18;54.86;100226.53;5040650;28;20415;-71
2022/06/23 00:04:29;;;;;;;7.43;2.63;;;;;;;16.11;55.11;100231.22;5041828;28;20480;-72
2022/06/23 00:07:05;;;;;;;7.25;2.38;;;;;;;16.06;55.48;100226.94;5035429;28;20037;-71
2022/06/23 00:09:45;;;;;;;3.83;2.28;;;;;;;15.97;56.77;100225.47;5040178;28;20025;-71
2022/06/23 00:12:19;;;;;;;3.17;1.80;;;;;;;15.80;55.45;100228.72;5036580;28;20132;-71
2022/06/23 00:15:10;;;;;;;5.07;1.77;;;;;;;15.80;55.87;100225.16;5039536;28;20164;-71
2022/06/23 00:17:37;;;;;;;4.82;1.90;;;;;;;15.66;56.07;100228.22;5041161;28;20055;-71
2022/06/23 00:20:11;;;;;;;2.50;1.50;;;;;;;15.65;56.80;100230.03;5034741;28;20034;-71
2022/06/23 00:22:39;;;;;;;5.47;2.50;;;;;;;15.66;56.57;100239.72;5040024;28;20040;-71
2022/06/23 00:25:07;;;;;;;4.35;2.00;;;;;;;15.59;57.92;100232.00;5041583;28;20036;-71
2022/06/23 00:27:41;;;;;;;4.97;1.77;;;;;;;15.54;57.70;100240.16;5038753;28;20124;-71
2022/06/23 00:30:20;;;;;;;5.03;2.50;;;;;;;15.56;56.90;100238.28;5039317;28;20040;-71
2022/06/23 00:32:46;;;;;;;6.22;2.40;;;;;;;15.56;56.17;100243.59;5034525;28;20040;-71
2022/06/23 00:35:16;;;;;;;3.78;2.05;;;;;;;15.55;56.60;100242.72;5040599;28;20037;-72
2022/06/23 00:37:47;;;;;;;3.40;1.85;;;;;;;15.60;56.57;100249.72;5048754;28;20073;-72
2022/06/23 00:40:14;;;;;;;5.35;2.33;;;;;;;15.61;56.23;100252.31;5045497;28;20033;-71
2022/06/23 00:42:49;;;;;;;3.35;1.90;;;;;;;15.57;58.05;100254.22;5038173;28;20522;-71
2022/06/23 00:45:28;;;;;;;4.00;2.05;;;;;;;15.39;58.23;100238.81;5043331;28;20492;-71
2022/06/23 00:48:03;;;;;;;3.20;1.83;;;;;;;15.25;58.38;100255.19;5039792;28;20034;-71
2022/06/23 00:50:44;;;;;;;6.43;2.13;;;;;;;15.21;59.60;100256.19;5042510;28;20128;-71
2022/06/23 00:53:12;;;;;;;4.78;1.80;;;;;;;15.15;58.64;100264.34;5040720;28;20033;-71
2022/06/23 00:55:57;;;;;;;5.00;2.22;;;;;;;15.20;59.37;100257.13;5042844;28;20044;-71
2022/06/23 00:58:50;;;;;;;3.65;2.13;;;;;;;15.26;58.90;100256.94;5041704;28;20037;-71
2022/06/23 01:01:31;;;;;;;5.68;2.55;;;;;;;15.23;58.76;100272.09;5042008;28;20037;-72
2022/06/23 01:04:03;;;;;;;6.63;2.00;;;;;;;15.12;58.39;100275.94;5040444;28;20120;-71
2022/06/23 01:06:39;;;;;;;8.23;1.92;;;;;;;15.15;59.27;100272.34;5042400;28;20377;-71
2022/06/23 01:09:27;;;;;;;1597.45;129.25;;;;;;;15.23;59.42;100280.09;5039642;28;20033;-71
2022/06/23 01:11:58;;;;;;;270.58;34.10;;;;;;;15.24;58.84;100279.16;5038708;28;20056;-71
2022/06/23 01:14:50;;;;;;;196.80;22.60;;;;;;;15.25;58.70;100287.09;5041592;28;20048;-71
2022/06/23 01:17:20;;;;;;;6.63;2.38;;;;;;;15.28;58.35;100300.28;5042363;28;20400;-71
2022/06/23 01:19:58;;;;;;;394.70;210.10;;;;;;;15.27;58.52;100300.31;5040570;28;20033;-71
2022/06/23 01:22:38;;;;;;;815.17;269.30;;;;;;;15.18;59.04;100306.78;5042120;28;20499;-71
2022/06/23 01:25:28;;;;;;;1080.72;520.60;;;;;;;15.16;58.81;100313.94;5036044;28;20056;-71
2022/06/23 01:28:02;;;;;;;3.25;1.80;;;;;;;15.15;58.33;100306.88;5039417;28;20172;-71
2022/06/23 01:30:36;;;;;;;302.35;182.27;;;;;;;15.09;58.11;100312.34;5042082;28;20495;-71
2022/06/23 01:33:16;;;;;;;19.60;6.68;;;;;;;15.04;58.58;100314.31;5040872;28;20511;-71
2022/06/23 01:35:57;;;;;;;1999.90;999.90;;;;;;;15.00;58.11;100307.31;5040090;28;20132;-71
2022/06/23 01:38:46;;;;;;;584.28;141.20;;;;;;;15.01;57.82;100311.69;5041140;28;20036;-72
2022/06/23 01:41:21;;;;;;;450.73;95.13;;;;;;;15.08;57.36;100313.28;5040523;28;20172;-71
2022/06/23 01:44:09;;;;;;;1999.90;999.90;;;;;;;15.13;57.31;100308.72;5036905;28;20044;-71
2022/06/23 01:46:37;;;;;;;1577.97;762.33;;;;;;;15.19;57.32;100312.97;5041778;28;20040;-71
2022/06/23 01:49:12;;;;;;;3.42;1.60;;;;;;;15.17;57.20;100310.38;5041607;28;20021;-71
2022/06/23 01:51:38;;;;;;;705.45;288.20;;;;;;;15.20;56.39;100315.59;5039457;28;20045;-71
2022/06/23 01:54:14;;;;;;;17.90;7.80;;;;;;;15.29;56.62;100319.78;5036330;28;20049;-71
2022/06/23 01:57:09;;;;;;;4.10;2.65;;;;;;;15.38;57.07;100315.97;5042622;28;20574;-71
2022/06/23 01:59:50;;;;;;;5.65;2.50;;;;;;;15.48;56.13;100317.44;5041485;28;20033;-71
2022/06/23 02:02:26;;;;;;;5.22;2.30;;;;;;;15.56;55.76;100318.06;5020596;28;20060;-71
2022/06/23 02:04:52;;;;;;;4.38;2.20;;;;;;;15.65;55.78;100328.47;5043699;28;20385;-71
2022/06/23 02:07:24;;;;;;;5.00;2.65;;;;;;;15.68;56.29;100323.03;5040473;28;20052;-71
2022/06/23 02:09:53;;;;;;;5.00;2.65;;;;;;;15.73;56.07;100326.47;5042502;28;20029;-71
2022/06/23 02:12:39;;;;;;;4.60;2.38;;;;;;;15.77;56.25;100324.56;5041238;28;20116;-71
2022/06/23 02:15:12;;;;;;;4.25;2.17;;;;;;;15.78;56.20;100329.00;5041008;28;20041;-72
2022/06/23 02:18:05;;;;;;;3.10;2.30;;;;;;;15.83;56.47;100331.53;5040390;28;20088;-71
2022/06/23 02:20:30;;;;;;;;;;;;;;;15.84;56.77;100330.59;5037364;28;20041;-71
2022/06/23 02:23:11;;;;;;;3.60;2.20;;;;;;;15.84;56.13;100334.13;5042132;28;20295;-71
2022/06/23 02:25:44;;;;;;;4.40;2.10;;;;;;;15.83;56.49;100331.53;5043683;28;20072;-71
2022/06/23 02:28:15;;;;;;;3.50;2.25;;;;;;;15.81;56.37;100328.88;5041545;28;20517;-71
2022/06/23 02:30:46;;;;;;;3.72;2.03;;;;;;;15.83;57.31;100326.19;5040682;28;20030;-71
2022/06/23 02:33:23;;;;;;;4.30;1.75;;;;;;;15.83;57.35;100335.03;5036333;28;20106;-71
2022/06/23 02:35:58;;;;;;;4.00;1.75;;;;;;;15.84;57.51;100335.91;5038014;28;20041;-71
2022/06/23 02:38:35;;;;;;;4.00;2.03;;;;;;;15.82;57.25;100329.75;5020391;28;20038;-71
2022/06/23 02:41:34;;;;;;;2.90;1.60;;;;;;;15.85;57.51;100343.84;5039966;28;20033;-72
2022/06/23 02:44:18;;;;;;;6.20;2.25;;;;;;;15.82;57.88;100343.06;5036222;28;20041;-72
2022/06/23 02:47:08;;;;;;;4.78;1.80;;;;;;;15.77;57.46;100344.09;5040013;28;20048;-71
2022/06/23 02:49:59;;;;;;;3.83;2.10;;;;;;;15.74;57.02;100344.16;5042180;28;20037;-72
2022/06/23 02:52:53;;;;;;;3.70;1.83;;;;;;;15.69;57.39;100348.78;5042147;28;20048;-71
2022/06/23 02:55:56;;;;;;;3.05;1.75;;;;;;;15.56;57.91;100344.69;5035714;28;20112;-71
2022/06/23 02:58:45;;;;;;;5.45;2.65;;;;;;;15.36;59.64;100342.63;5039305;28;20474;-71
2022/06/23 03:01:37;;;;;;;6.40;1.77;;;;;;;15.24;59.33;100346.47;5039362;28;20502;-71
2022/06/23 03:04:26;;;;;;;4.93;1.83;;;;;;;15.11;59.34;100353.06;5040713;28;20036;-72
2022/06/23 03:07:07;;;;;;;4.78;2.20;;;;;;;15.01;58.91;100359.53;5040510;28;20041;-71
2022/06/23 03:09:42;;;;;;;7.80;3.08;;;;;;;14.94;60.14;100355.31;5038465;28;20095;-71
2022/06/23 03:12:11;;;;;;;4.07;2.25;;;;;;;14.88;60.14;100356.34;5039050;28;20048;-71
2022/06/23 03:14:42;;;;;;;4.35;1.88;;;;;;;14.86;59.75;100359.06;5036285;28;20469;-70
2022/06/23 03:17:16;;;;;;;4.00;2.22;;;;;;;14.85;60.80;100365.25;5040852;28;20045;-71
2022/06/23 03:19:47;;;;;;;6.35;1.83;;;;;;;14.73;60.04;100373.56;5038251;28;20492;-71
2022/06/23 03:22:27;;;;;;;4.40;2.42;;;;;;;14.72;60.01;100371.81;5041050;28;20671;-70
2022/06/23 03:25:05;;;;;;;3.63;2.45;;;;;;;14.74;59.99;100370.00;5042624;28;20047;-71
2022/06/23 03:27:37;;;;;;;4.03;2.40;;;;;;;14.76;60.35;100378.81;5041289;28;20055;-71
2022/06/23 03:30:02;;;;;;;;;;;;;;;14.75;60.61;100379.72;5039726;28;20029;-71
2022/06/23 03:32:41;;;;;;;5.95;2.58;;;;;;;14.73;59.82;100373.56;5041620;28;19966;-71
2022/06/23 03:35:11;;;;;;;8.73;3.35;;;;;;;14.65;61.75;100378.22;5041254;28;20538;-71
2022/06/23 03:37:58;;;;;;;4.57;2.42;;;;;;;14.69;60.85;100371.88;5018214;28;20073;-71
2022/06/23 03:43:33;;;;;;;5.57;2.17;;;;;;;14.70;60.66;100384.28;5039569;28;20547;-71
2022/06/23 03:46:18;;;;;;;3.63;2.25;;;;;;;14.72;61.08;100390.41;5039570;28;20056;-71
2022/06/23 03:48:51;;;;;;;3.83;2.30;;;;;;;14.68;60.47;100402.91;5024878;28;20068;-71
2022/06/23 03:51:30;;;;;;;7.25;2.75;;;;;;;14.63;61.13;100406.59;5034809;28;20044;-71
2022/06/23 03:53:56;;;;;;;7.78;3.28;;;;;;;14.60;61.50;100399.56;5039608;28;20108;-71
2022/06/23 03:56:25;;;;;;;4.68;3.13;;;;;;;14.65;61.88;100404.78;5042434;28;20033;-71
2022/06/23 03:59:02;;;;;;;5.82;2.72;;;;;;;14.79;61.55;100410.59;5039238;28;20044;-71
2022/06/23 04:01:39;;;;;;;4.63;2.80;;;;;;;14.92;61.55;100410.28;5033239;28;20034;-71
2022/06/23 04:04:14;;;;;;;4.72;3.08;;;;;;;15.05;61.40;100414.38;5037098;28;20488;-71
2022/06/23 04:06:41;;;;;;;5.82;2.63;;;;;;;15.17;61.34;100408.75;5038300;28;20025;-71
2022/06/23 04:09:27;;;;;;;6.70;3.30;;;;;;;15.25;60.77;100412.06;5042014;28;20151;-71
2022/06/23 04:12:08;;;;;;;4.95;2.83;;;;;;;15.35;60.47;100415.31;5045472;28;20131;-71
2022/06/23 04:14:33;;;;;;;4.72;2.90;;;;;;;15.45;60.62;100411.47;5044894;28;20033;-71
2022/06/23 04:17:22;;;;;;;5.60;2.97;;;;;;;15.64;60.00;100416.28;5041910;28;20521;-71
2022/06/23 04:19:52;;;;;;;5.30;2.55;;;;;;;15.75;59.69;100420.41;5043951;28;20033;-71
2022/06/23 04:22:52;;;;;;;4.30;2.35;;;;;;;15.92;59.44;100430.56;5042236;28;20469;-71
2022/06/23 04:25:24;;;;;;;7.55;2.90;;;;;;;16.06;59.11;100427.50;5032819;28;20067;-71
2022/06/23 04:27:55;;;;;;;4.60;2.40;;;;;;;16.16;59.03;100431.59;5042548;28;20055;-71
2022/06/23 04:30:33;;;;;;;3.75;2.25;;;;;;;16.21;59.15;100421.69;5039388;28;20120;-71
2022/06/23 04:33:03;;;;;;;4.50;2.22;;;;;;;16.28;59.11;100432.16;5042236;28;20626;-71
2022/06/23 04:35:36;;;;;;;6.78;3.10;;;;;;;16.36;58.78;100432.78;5031455;28;20033;-71
2022/06/23 04:38:07;;;;;;;7.80;2.80;;;;;;;16.50;59.02;100433.19;5042292;28;20038;-71
2022/06/23 04:40:34;;;;;;;5.68;2.33;;;;;;;16.65;59.24;100438.03;5042224;28;20042;-71
2022/06/23 04:43:15;;;;;;;6.25;2.60;;;;;;;16.72;58.64;100440.53;5037992;28;20044;-71
2022/06/23 04:46:03;;;;;;;3.97;2.67;;;;;;;16.76;59.02;100440.34;5042419;28;20075;-71
2022/06/23 04:48:43;;;;;;;4.47;3.30;;;;;;;16.83;58.43;100449.06;5043318;28;20492;-71
2022/06/23 04:51:29;;;;;;;6.18;3.65;;;;;;;16.94;58.59;100446.91;5039700;28;20053;-71
2022/06/23 04:54:10;;;;;;;4.13;3.00;;;;;;;17.05;57.56;100452.72;5039874;28;20038;-71
2022/06/23 04:56:43;;;;;;;7.53;3.65;;;;;;;17.19;57.19;100457.59;5041681;28;20076;-71
2022/06/23 04:59:18;;;;;;;3.72;1.85;;;;;;;17.30;56.86;100460.75;5043557;28;20144;-71
2022/06/23 05:01:47;;;;;;;3.83;2.13;;;;;;;17.41;56.69;100452.38;5044489;28;20037;-71
2022/06/23 05:04:32;;;;;;;3.85;2.20;;;;;;;17.54;56.32;100455.47;5038673;28;20026;-71
2022/06/23 05:07:01;;;;;;;6.05;3.00;;;;;;;17.64;56.32;100458.69;5041364;28;20037;-71
2022/06/23 05:09:35;;;;;;;4.00;2.50;;;;;;;17.72;56.29;100456.63;5043832;28;20037;-72
2022/06/23 05:12:23;;;;;;;4.72;2.50;;;;;;;17.85;55.78;100452.59;5043619;28;20041;-71
2022/06/23 05:14:59;;;;;;;4.35;2.33;;;;;;;17.99;55.25;100451.19;5042723;28;20048;-71
2022/06/23 05:17:31;;;;;;;5.78;3.35;;;;;;;18.12;54.75;100455.13;5038949;28;20438;-71
2022/06/23 05:19:57;;;;;;;;;;;;;;;18.23;54.38;100446.69;5042078;28;20037;-71
2022/06/23 05:22:29;;;;;;;6.80;3.42;;;;;;;18.36;54.12;100453.31;5042399;28;19923;-71
2022/06/23 05:24:57;;;;;;;4.35;2.90;;;;;;;18.50;53.89;100455.44;5038611;28;20043;-71
2022/06/23 05:27:27;;;;;;;5.20;3.00;;;;;;;18.62;53.84;100457.59;5043047;28;20373;-71
2022/06/23 05:30:02;;;;;;;5.10;2.80;;;;;;;18.70;53.90;100462.63;5043913;28;20025;-71
2022/06/23 05:32:38;;;;;;;5.75;3.15;;;;;;;18.78;53.48;100466.75;5038257;28;20045;-71
2022/06/23 05:35:13;;;;;;;5.70;3.70;;;;;;;18.87;53.34;100470.88;5041467;28;20041;-71
2022/06/23 05:37:55;;;;;;;5.55;2.85;;;;;;;18.93;53.16;100467.06;5038727;28;20045;-71
2022/06/23 05:40:39;;;;;;;5.38;3.08;;;;;;;19.02;52.75;100472.03;5041026;28;20029;-71
2022/06/23 05:43:08;;;;;;;7.07;2.65;;;;;;;19.09;52.59;100472.66;5040729;28;20132;-71
2022/06/23 05:45:46;;;;;;;5.75;2.45;;;;;;;19.22;52.28;100471.19;5037354;28;20072;-71
2022/06/23 05:48:16;;;;;;;3.05;1.90;;;;;;;19.30;51.55;100478.88;5041738;28;20025;-71
2022/06/23 05:50:52;;;;;;;3.65;2.00;;;;;;;19.39;51.31;100475.84;5043889;28;20090;-71
2022/06/23 05:53:27;;;;;;;6.13;2.95;;;;;;;19.44;51.11;100473.78;5041039;28;20046;-71
2022/06/23 05:56:06;;;;;;;4.88;2.55;;;;;;;19.54;50.62;100467.09;5039511;28;20441;-71
2022/06/23 05:58:51;;;;;;;6.65;3.00;;;;;;;19.58;50.42;100474.06;5041529;28;20045;-71
2022/06/23 06:01:31;;;;;;;7.30;2.97;;;;;;;19.65;51.04;100475.53;5034293;28;20427;-71
2022/06/23 06:04:06;;;;;;;4.03;2.45;;;;;;;19.81;50.24;100477.56;5036316;28;20041;-71
2022/06/23 06:06:33;;;;;;;5.22;2.88;;;;;;;19.84;50.39;100478.28;5040528;28;20037;-71
2022/06/23 06:11:51;;;;;;;5.28;2.83;;;;;;;20.10;49.75;100471.75;5042220;28;20033;-71
2022/06/23 06:14:20;;;;;;;4.10;2.42;;;;;;;20.21;49.62;100473.06;5036041;28;20048;-71
2022/06/23 06:16:46;;;;;;;4.68;2.78;;;;;;;20.25;49.42;100474.63;5042217;28;20064;-72
2022/06/23 06:19:17;;;;;;;4.57;2.40;;;;;;;20.35;48.41;100484.84;5042075;28;20119;-71
2022/06/23 06:21:44;;;;;;;3.30;2.28;;;;;;;20.44;48.79;100480.00;5039294;28;20060;-71
2022/06/23 06:24:37;;;;;;;3.55;2.20;;;;;;;20.51;47.49;100482.31;5041856;28;20075;-71
2022/06/23 06:27:08;;;;;;;4.25;2.10;;;;;;;20.48;47.88;100481.56;5037363;28;20087;-71
2022/06/23 06:29:37;;;;;;;3.88;2.05;;;;;;;20.66;47.79;100479.84;5041342;28;20061;-71
2022/06/23 06:32:33;;;;;;;4.90;3.30;;;;;;;20.86;47.21;100471.69;5042738;28;20076;-71
2022/06/23 06:35:29;;;;;;;5.55;3.13;;;;;;;21.03;46.48;100476.22;5040738;28;20037;-72
2022/06/23 06:38:02;;;;;;;3.38;2.30;;;;;;;21.16;46.60;100476.47;5044990;28;20056;-71
2022/06/23 06:40:28;;;;;;;5.18;2.58;;;;;;;21.29;46.65;100484.75;5040331;28;20042;-71
2022/06/23 06:43:01;;;;;;;5.68;3.45;;;;;;;21.43;45.97;100476.88;5042225;28;20029;-72
2022/06/23 06:45:31;;;;;;;4.13;2.58;;;;;;;21.52;45.92;100470.19;5041167;28;20041;-72
2022/06/23 06:47:57;;;;;;;4.15;2.78;;;;;;;21.59;46.59;100468.91;5040453;28;20038;-71
2022/06/23 06:50:35;;;;;;;5.28;3.08;;;;;;;21.70;45.62;100474.56;5037295;28;20035;-72
2022/06/23 06:53:07;;;;;;;5.07;3.25;;;;;;;21.85;46.09;100484.50;5036312;28;20044;-71
2022/06/23 06:55:41;;;;;;;6.50;2.75;;;;;;;21.87;45.69;100479.88;5042781;28;20627;-71
2022/06/23 06:58:41;;;;;;;6.22;3.38;;;;;;;22.03;45.49;100487.13;5036606;28;20060;-71
2022/06/23 07:01:14;;;;;;;7.10;3.67;;;;;;;22.22;45.12;100490.59;5040066;28;20124;-72
2022/06/23 07:03:44;;;;;;;4.50;2.47;;;;;;;22.41;43.91;100487.72;5035181;28;20040;-72
2022/06/23 07:06:49;;;;;;;3.53;2.20;;;;;;;22.52;43.59;100492.50;5041031;28;20043;-72
2022/06/23 07:09:29;;;;;;;8.38;5.63;;;;;;;22.64;43.74;100486.44;5042194;28;20052;-72
2022/06/23 07:12:21;;;;;;;6.40;3.47;;;;;;;22.73;43.40;100485.91;5041172;28;20127;-71
2022/06/23 07:15:14;;;;;;;4.88;3.30;;;;;;;22.94;42.41;100496.38;5041207;28;20078;-71
2022/06/23 07:17:46;;;;;;;4.50;2.55;;;;;;;23.06;42.04;100494.84;5041955;28;20039;-72
2022/06/23 07:20:25;;;;;;;4.80;3.40;;;;;;;23.17;41.53;100493.25;5035379;28;20040;-71
2022/06/23 07:23:16;;;;;;;6.50;4.35;;;;;;;23.31;41.04;100484.34;5042075;28;20079;-71
2022/06/23 07:25:50;;;;;;;4.93;2.83;;;;;;;23.38;40.71;100490.22;5042582;28;20041;-72
2022/06/23 07:28:27;;;;;;;5.78;3.08;;;;;;;23.31;41.03;100489.72;5040578;28;20276;-71
2022/06/23 07:30:57;;;;;;;3.92;1.85;;;;;;;23.47;40.75;100486.97;5038780;28;20029;-71
2022/06/23 07:33:34;;;;;;;3.80;2.25;;;;;;;23.59;40.92;100479.97;5041468;28;20124;-72
2022/06/23 07:36:06;;;;;;;3.33;2.38;;;;;;;23.75;40.41;100488.03;5041845;28;20510;-72
2022/06/23 07:38:40;;;;;;;3.90;2.70;;;;;;;23.96;39.98;100488.50;5036639;28;20060;-72
2022/06/23 07:41:24;;;;;;;8.73;3.30;;;;;;;24.03;39.44;100489.88;5039321;28;20411;-72
2022/06/23 07:44:18;;;;;;;3.58;2.08;;;;;;;24.16;38.85;100492.66;5039104;28;20091;-71
2022/06/23 07:46:43;;;;;;;3.65;1.85;;;;;;;24.32;39.26;100490.72;5044076;28;20116;-72
2022/06/23 07:49:09;;;;;;;7.15;2.50;;;;;;;24.47;39.24;100494.25;5043249;28;20121;-72
2022/06/23 07:51:36;;;;;;;2.90;1.65;;;;;;;24.54;38.57;100494.75;5045368;28;20029;-72
2022/06/23 07:54:02;;;;;;;4.28;1.80;;;;;;;24.60;38.83;100486.25;5043459;28;20056;-72
2022/06/23 07:56:32;;;;;;;8.07;2.40;;;;;;;24.69;38.34;100496.44;5044669;28;20036;-71
2022/06/23 07:59:08;;;;;;;6.65;2.95;;;;;;;24.80;38.64;100487.63;5045206;28;20033;-72
2022/06/23 08:01:41;;;;;;;5.95;3.38;;;;;;;24.96;37.97;100492.88;5039839;28;20061;-72
2022/06/23 08:04:25;;;;;;;4.13;2.20;;;;;;;25.14;37.29;100486.25;5043777;28;20090;-72
2022/06/23 08:06:51;;;;;;;3.58;2.20;;;;;;;25.33;37.24;100486.75;5041982;28;20072;-72
2022/06/23 08:09:27;;;;;;;3.38;1.80;;;;;;;25.43;35.74;100478.88;5037871;28;20064;-71
2022/06/23 08:18:18;;;;;;;3.50;2.30;;;;;;;26.01;35.12;100476.66;5040520;28;20041;-72
2022/06/23 08:20:53;;;;;;;2.83;1.55;;;;;;;26.24;35.13;100481.25;5042158;28;20033;-72
2022/06/23 08:23:21;;;;;;;2.55;1.50;;;;;;;26.49;35.06;100481.31;5043985;28;20119;-72
2022/06/23 08:25:47;;;;;;;5.35;2.92;;;;;;;26.66;34.90;100475.56;5044883;28;20040;-72
2022/06/23 08:28:15;;;;;;;7.18;2.35;;;;;;;26.63;33.64;100473.94;5042359;28;20412;-72
2022/06/23 08:30:40;;;;;;;6.18;2.90;;;;;;;26.49;34.20;100476.78;5039030;28;20029;-72
2022/06/23 08:33:06;;;;;;;3.63;2.13;;;;;;;26.52;34.23;100473.88;5044243;28;20033;-72
2022/06/23 08:35:39;;;;;;;3.70;2.53;;;;;;;26.72;34.28;100463.41;5038997;28;20033;-71
2022/06/23 08:38:10;;;;;;;3.47;1.95;;;;;;;26.84;33.85;100470.63;5042418;28;20043;-72
2022/06/23 08:40:53;;;;;;;7.97;3.30;;;;;;;27.04;34.17;100466.41;5039283;28;20069;-72
2022/06/23 08:43:42;;;;;;;5.13;2.83;;;;;;;27.23;34.01;100466.75;5042060;28;20033;-72
2022/06/23 08:46:28;;;;;;;5.00;3.22;;;;;;;27.33;33.49;100458.78;5041993;28;20055;-72
2022/06/23 08:49:00;;;;;;;5.00;3.15;;;;;;;27.53;33.56;100460.78;5041937;28;20136;-72
2022/06/23 08:51:36;;;;;;;4.93;2.63;;;;;;;27.70;32.85;100454.03;5038622;28;20051;-72
2022/06/23 08:54:17;;;;;;;2.85;1.50;;;;;;;27.78;30.77;100450.72;5042444;28;20404;-72
2022/06/23 08:56:55;;;;;;;6.07;2.53;;;;;;;27.93;31.03;100459.53;5040286;28;20077;-72
2022/06/23 08:59:46;;;;;;;3.05;1.88;;;;;;;28.07;30.84;100447.56;5038979;28;20299;-72
2022/06/23 09:02:37;;;;;;;5.70;1.98;;;;;;;28.15;29.01;100445.09;5037941;28;20041;-72
2022/06/23 09:05:20;;;;;;;2.47;1.00;;;;;;;28.21;27.56;100444.56;5034521;28;20048;-72
2022/06/23 09:07:58;;;;;;;5.45;2.17;;;;;;;28.33;28.15;100445.44;5044962;28;20068;-72
2022/06/23 09:10:42;;;;;;;4.13;2.30;;;;;;;28.48;27.86;100443.31;5043765;28;20400;-72
2022/06/23 09:13:29;;;;;;;2.67;1.10;;;;;;;28.50;26.47;100442.22;5039694;28;20141;-72
2022/06/23 09:16:07;;;;;;;3.30;1.08;;;;;;;28.59;26.88;100440.59;5038106;28;20539;-72
2022/06/23 09:18:43;;;;;;;3.90;1.85;;;;;;;28.73;26.35;100434.88;5044752;28;20094;-72
2022/06/23 09:21:27;;;;;;;2.35;1.60;;;;;;;28.83;26.53;100429.53;5039632;28;20033;-72
2022/06/23 09:23:58;;;;;;;3.83;1.35;;;;;;;28.77;25.80;100433.63;5038951;28;20048;-72
2022/06/23 09:26:44;;;;;;;3.70;1.92;;;;;;;28.82;26.02;100434.09;5042725;28;20083;-72
2022/06/23 09:29:13;;;;;;;5.03;3.53;;;;;;;28.99;26.37;100438.09;5040713;28;20392;-72
2022/06/23 09:32:12;;;;;;;2.70;1.40;;;;;;;29.04;25.27;100430.44;5041273;28;20124;-72
2022/06/23 09:35:34;;;;;;;3.35;1.73;;;;;;;29.09;24.29;100432.78;5028910;28;20045;-72
2022/06/23 09:38:44;;;;;;;2.35;1.23;;;;;;;29.15;23.37;100421.38;4999922;28;20049;-71
2022/06/23 09:41:39;;;;;;;3.97;1.63;;;;;;;29.18;24.11;100431.97;5001899;28;20099;-72
2022/06/23 09:44:29;;;;;;;1.30;0.65;;;;;;;29.22;23.71;100425.28;5036986;28;20099;-72
2022/06/23 09:47:13;;;;;;;3.28;1.35;;;;;;;29.38;23.80;100423.97;5038394;28;20087;-72
2022/06/23 09:49:47;;;;;;;5.15;2.33;;;;;;;29.59;23.94;100427.53;5040841;28;20029;-72
2022/06/23 09:52:30;;;;;;;2.58;1.25;;;;;;;29.69;22.74;100424.91;5041708;28;20488;-72
2022/06/23 09:55:21;;;;;;;1.90;1.20;;;;;;;29.74;22.44;100421.75;5038526;28;20086;-72
2022/06/23 09:58:05;;;;;;;2.00;0.70;;;;;;;29.57;22.29;100421.34;5038604;28;20033;-72
2022/06/23 10:00:59;;;;;;;2.83;1.10;;;;;;;29.54;22.79;100424.34;5019704;28;20034;-72
2022/06/23 10:03:51;;;;;;;4.25;2.67;;;;;;;29.76;22.55;100420.63;5038304;28;20037;-72
2022/06/23 10:06:28;;;;;;;2.47;1.05;;;;;;;29.98;21.64;100422.31;5037063;28;20041;-72
2022/06/23 10:09:09;;;;;;;3.40;2.00;;;;;;;29.78;22.59;100412.34;5039802;28;20033;-72
2022/06/23 10:11:53;;;;;;;2.65;1.60;;;;;;;29.96;22.98;100409.84;5040924;28;20037;-72
2022/06/23 10:14:34;;;;;;;5.55;1.95;;;;;;;29.92;22.27;100404.69;5033969;28;20041;-72
2022/06/23 10:17:19;;;;;;;3.10;1.67;;;;;;;30.13;21.82;100406.47;5037268;28;20034;-72
2022/06/23 10:20:06;;;;;;;2.72;1.00;;;;;;;30.25;22.09;100409.97;5038766;28;20052;-72
2022/06/23 10:22:45;;;;;;;3.90;1.65;;;;;;;30.46;22.73;100407.13;5039493;28;20171;-72
2022/06/23 10:25:42;;;;;;;2.13;1.30;;;;;;;30.57;22.15;100405.13;5040446;28;20476;-72
2022/06/23 10:28:29;;;;;;;1.42;0.82;;;;;;;30.21;21.43;100398.47;5021975;28;20041;-72
2022/06/23 10:31:13;;;;;;;2.13;1.05;;;;;;;30.14;21.74;100395.44;5040981;28;20052;-72
2022/06/23 10:33:56;;;;;;;1.70;0.98;;;;;;;30.12;21.56;100394.69;5040036;28;20033;-72
2022/06/23 10:36:49;;;;;;;3.30;2.17;;;;;;;30.51;21.97;100397.53;5035504;28;20438;-72
2022/06/23 10:39:19;;;;;;;3.35;1.42;;;;;;;30.76;21.10;100387.97;5038964;28;20033;-72
2022/06/23 10:42:27;;;;;;;7.43;1.90;;;;;;;30.93;21.53;100383.66;5039929;28;20026;-72
2022/06/23 10:45:13;;;;;;;3.47;0.90;;;;;;;30.88;19.38;100382.38;5021840;28;20057;-72
2022/06/23 10:48:18;;;;;;;3.88;1.92;;;;;;;31.01;21.15;100388.41;5038091;28;20135;-72
2022/06/23 10:51:01;;;;;;;1.73;1.00;;;;;;;31.10;19.10;100384.81;5041758;28;20035;-72
2022/06/23 10:54:01;;;;;;;1.45;0.80;;;;;;;30.90;16.35;100378.53;5040701;28;20123;-72
2022/06/23 10:56:57;;;;;;;1.85;0.70;;;;;;;30.90;18.11;100374.94;5043110;28;20119;-72
2022/06/23 10:59:44;;;;;;;1.73;0.70;;;;;;;31.01;18.43;100381.09;5037363;28;20033;-72
2022/06/23 11:02:40;;;;;;;2.90;1.45;;;;;;;31.04;19.53;100379.94;5036179;28;20041;-73
2022/06/23 11:05:05;;;;;;;3.33;1.67;;;;;;;31.24;19.28;100372.59;5034462;28;20052;-72
2022/06/23 11:07:36;;;;;;;2.23;1.10;;;;;;;31.37;17.11;100375.00;5039948;28;20033;-72
2022/06/23 11:10:16;;;;;;;1.83;0.90;;;;;;;31.44;15.59;100374.31;5042976;28;20315;-72
2022/06/23 11:13:10;;;;;;;4.55;1.98;;;;;;;31.71;17.97;100361.72;5040976;28;20044;-72
2022/06/23 11:16:09;;;;;;;1.85;0.90;;;;;;;31.86;15.49;100360.19;5040538;28;20087;-72
2022/06/23 11:18:52;;;;;;;1.67;0.68;;;;;;;31.63;16.79;100353.41;5034150;28;20087;-72
2022/06/23 11:21:29;;;;;;;1.23;0.70;;;;;;;31.57;15.75;100356.72;5037650;28;20043;-72
2022/06/23 11:24:15;;;;;;;3.70;1.88;;;;;;;31.82;15.98;100356.03;5038316;28;20037;-72
2022/06/23 11:27:11;;;;;;;2.05;1.00;;;;;;;31.99;15.95;100353.53;5037261;28;20124;-72
2022/06/23 11:30:02;;;;;;;4.70;1.50;;;;;;;31.95;15.28;100344.81;5039427;28;20033;-72
2022/06/23 11:32:43;;;;;;;;;;;;;;;31.61;15.81;100344.53;5039622;28;20037;-72
2022/06/23 11:35:36;;;;;;;4.38;1.55;;;;;;;32.07;16.35;100345.47;5036839;28;20302;-72
2022/06/23 11:38:07;;;;;;;1.58;1.10;;;;;;;32.63;16.06;100338.91;5038194;28;20049;-72
2022/06/23 11:40:45;;;;;;;2.28;1.20;;;;;;;32.90;15.59;100335.19;5039711;28;20030;-72
2022/06/23 11:43:29;;;;;;;2.08;1.15;;;;;;;33.46;15.25;100338.50;5036721;28;20095;-72
2022/06/23 11:46:03;;;;;;;1.55;0.93;;;;;;;33.75;13.56;100326.38;5036539;28;20095;-72
2022/06/23 11:48:57;;;;;;;1.23;0.90;;;;;;;33.79;12.91;100327.75;5039971;28;20096;-72
2022/06/23 11:51:55;;;;;;;1.60;1.08;;;;;;;34.23;13.00;100319.34;5031710;28;20044;-72
2022/06/23 11:54:36;;;;;;;2.67;0.88;;;;;;;34.53;12.55;100322.47;5035861;28;20041;-72
2022/06/23 11:57:19;;;;;;;;;;;;;;;34.84;12.21;100322.69;5039753;28;20034;-72
2022/06/23 12:00:06;;;;;;;2.67;1.60;;;;;;;35.39;13.02;100321.06;5039369;28;19978;-72
2022/06/23 12:02:57;;;;;;;1.88;1.00;;;;;;;35.78;12.50;100315.63;5040552;28;20039;-72
2022/06/23 12:05:30;;;;;;;1.27;0.70;;;;;;;35.63;11.65;100312.78;5037873;28;20120;-72
2022/06/23 12:08:33;;;;;;;0.60;0.50;;;;;;;35.59;12.06;100311.44;5038745;28;20033;-72
2022/06/23 12:10:59;;;;;;;0.90;0.73;;;;;;;35.49;13.61;100308.00;5037969;28;20703;-72
2022/06/23 12:13:27;;;;;;;1.27;0.77;;;;;;;35.51;14.25;100305.94;5039861;28;20052;-72
2022/06/23 12:15:55;;;;;;;1.83;0.98;;;;;;;35.95;13.73;100305.44;5034121;28;20455;-72
2022/06/23 12:18:40;;;;;;;2.67;1.50;;;;;;;36.41;13.56;100295.38;5040290;28;20094;-72
2022/06/23 12:21:27;;;;;;;1.98;1.05;;;;;;;36.79;14.17;100308.34;5041175;28;20495;-72
2022/06/23 12:24:02;;;;;;;1.88;1.10;;;;;;;37.23;12.82;100291.94;5040714;28;20071;-72
2022/06/23 12:26:31;;;;;;;2.28;1.23;;;;;;;37.50;12.71;100295.09;5040075;28;20051;-72
2022/06/23 12:29:19;;;;;;;1.50;0.95;;;;;;;37.72;12.59;100284.97;5039351;28;20542;-72
2022/06/23 12:31:56;;;;;;;3.17;1.08;;;;;;;37.86;12.59;100281.38;5040756;28;20123;-72